createdAt,value
2019-01-19T00:02:01.051Z,2.12
2019-01-19T00:05:16.228Z,3.70
2019-01-19T00:08:30.634Z,2.33
2019-01-19T00:11:35.579Z,1.60
2019-01-19T00:14:27.900Z,2.95
2019-01-19T00:17:43.230Z,4.50
2019-01-19T00:20:53.495Z,2.40
2019-01-19T00:23:58.541Z,2.35
2019-01-19T00:26:56.317Z,1.62
2019-01-19T00:30:07.109Z,3.62
2019-01-19T00:33:00.998Z,1.95
2019-01-19T00:36:06.062Z,3.27
2019-01-19T00:39:10.491Z,3.25
2019-01-19T00:42:15.918Z,1.02
2019-01-19T00:44:55.421Z,1.75
2019-01-19T00:48:04.662Z,1.47
2019-01-19T00:51:19.904Z,2.25
2019-01-19T00:54:11.709Z,4.20
2019-01-19T00:57:12.556Z,1.95
2019-01-19T00:59:45.954Z,2.83
2019-01-19T01:02:33.184Z,3.22
2019-01-19T01:05:29.956Z,1.87
2019-01-19T01:08:52.591Z,2.12
2019-01-19T01:11:57.376Z,2.72
2019-01-19T01:15:12.124Z,2.17
2019-01-19T01:18:22.419Z,1.52
2019-01-19T01:21:19.119Z,2.02
2019-01-19T01:24:16.318Z,1.30
2019-01-19T01:27:01.845Z,2.67
2019-01-19T01:30:01.120Z,2.10
2019-01-19T01:33:00.431Z,1.77
2019-01-19T01:36:09.203Z,1.25
2019-01-19T01:39:11.002Z,1.00
2019-01-19T01:42:19.690Z,1.07
2019-01-19T01:45:30.256Z,2.50
2019-01-19T01:48:35.444Z,2.52
2019-01-19T01:51:35.158Z,1.80
2019-01-19T01:54:48.459Z,3.65
2019-01-19T01:57:25.814Z,1.00
2019-01-19T02:00:42.543Z,3.00
2019-01-19T02:03:55.936Z,1.98
2019-01-19T02:07:10.878Z,2.40
2019-01-19T02:10:10.823Z,2.10
2019-01-19T02:13:17.806Z,1.80
2019-01-19T02:16:55.383Z,0.95
2019-01-19T02:20:14.306Z,3.15
2019-01-19T02:23:28.969Z,0.82
2019-01-19T02:26:16.640Z,2.42
2019-01-19T02:29:36.075Z,2.45
2019-01-19T02:32:33.804Z,1.82
2019-01-19T02:35:37.782Z,4.03
2019-01-19T02:38:48.571Z,1.45
2019-01-19T02:42:13.716Z,1.10
2019-01-19T02:45:19.780Z,3.77
2019-01-19T02:48:22.623Z,0.93
2019-01-19T02:50:59.954Z,2.22
2019-01-19T02:54:09.063Z,1.52
2019-01-19T02:57:14.275Z,2.60
2019-01-19T03:00:36.532Z,1.85
2019-01-19T03:03:18.012Z,1.05
2019-01-19T03:06:12.308Z,2.27
2019-01-19T03:09:16.041Z,2.77
2019-01-19T03:12:23.317Z,1.62
2019-01-19T03:15:31.508Z,2.55
2019-01-19T03:18:56.760Z,1.25
2019-01-19T03:22:21.955Z,2.45
2019-01-19T03:25:11.217Z,2.30
2019-01-19T03:28:13.063Z,3.52
2019-01-19T03:31:50.617Z,1.45
2019-01-19T03:35:13.891Z,1.47
2019-01-19T03:38:23.076Z,1.47
2019-01-19T03:41:29.922Z,1.37
2019-01-19T03:44:45.773Z,2.22
2019-01-19T03:48:01.606Z,1.45
2019-01-19T03:51:10.150Z,2.30
2019-01-19T03:54:13.504Z,1.55
2019-01-19T03:57:16.490Z,1.57
2019-01-19T04:00:09.978Z,2.42
2019-01-19T04:03:21.558Z,4.75
2019-01-19T04:06:44.108Z,2.08
2019-01-19T04:09:31.921Z,3.85
2019-01-19T04:12:40.602Z,3.27
2019-01-19T04:16:03.134Z,1.95
2019-01-19T04:18:41.372Z,2.10
2019-01-19T04:21:51.869Z,1.37
2019-01-19T04:24:25.776Z,2.58
2019-01-19T04:26:57.433Z,1.70
2019-01-19T04:29:26.809Z,2.70
2019-01-19T04:31:56.237Z,3.72
2019-01-19T04:34:26.031Z,1.52
2019-01-19T04:36:55.680Z,2.80
2019-01-19T04:39:25.118Z,2.05
2019-01-19T04:41:54.509Z,1.95
2019-01-19T04:44:24.036Z,2.40
2019-01-19T04:46:53.468Z,2.75
2019-01-19T04:49:22.795Z,1.42
2019-01-19T04:51:52.215Z,1.42
2019-01-19T04:54:21.614Z,1.05
2019-01-19T04:56:50.956Z,1.75
2019-01-19T04:59:20.386Z,1.90
2019-01-19T05:01:49.726Z,1.10
2019-01-19T05:04:19.073Z,1.82
2019-01-19T05:06:48.569Z,1.22
2019-01-19T05:09:17.930Z,2.05
2019-01-19T05:11:47.297Z,2.17
2019-01-19T05:14:17.570Z,1.55
2019-01-19T05:16:46.907Z,1.27
2019-01-19T05:19:16.276Z,3.42
2019-01-19T05:21:45.767Z,1.15
2019-01-19T05:24:15.092Z,1.50
2019-01-19T05:26:44.450Z,1.42
2019-01-19T05:29:13.904Z,2.67
2019-01-19T05:31:43.214Z,1.55
2019-01-19T05:34:12.645Z,1.22
2019-01-19T05:36:42.047Z,2.25
2019-01-19T05:39:11.410Z,1.57
2019-01-19T05:41:40.820Z,1.07
2019-01-19T05:44:10.253Z,3.33
2019-01-19T05:46:39.682Z,1.77
2019-01-19T05:49:09.039Z,2.00
2019-01-19T05:51:38.467Z,1.62
2019-01-19T05:54:07.865Z,1.77
2019-01-19T05:56:37.212Z,4.30
2019-01-19T05:59:06.609Z,1.10
2019-01-19T06:01:36.040Z,1.62
2019-01-19T06:04:05.619Z,1.80
2019-01-19T06:06:35.089Z,0.85
2019-01-19T06:09:06.693Z,2.12
2019-01-19T06:11:36.104Z,4.62
2019-01-19T06:14:06.118Z,4.95
2019-01-19T06:16:36.370Z,3.83
2019-01-19T06:19:05.990Z,2.98
2019-01-19T06:21:39.732Z,3.15
2019-01-19T06:24:09.211Z,3.50
2019-01-19T06:26:38.585Z,1.98
2019-01-19T06:29:08.090Z,5.55
2019-01-19T06:31:37.454Z,1.82
2019-01-19T06:34:06.811Z,2.10
2019-01-19T06:36:36.302Z,1.57
2019-01-19T06:39:08.834Z,2.02
2019-01-19T06:41:38.352Z,2.55
2019-01-19T06:44:07.695Z,2.72
2019-01-19T06:46:37.106Z,2.55
2019-01-19T06:49:06.765Z,2.90
2019-01-19T06:51:36.123Z,1.52
2019-01-19T06:54:06.114Z,1.15
2019-01-19T06:56:35.479Z,2.42
2019-01-19T06:59:05.004Z,1.15
2019-01-19T07:01:34.375Z,1.72
2019-01-19T07:04:03.733Z,2.52
2019-01-19T07:06:33.170Z,1.77
2019-01-19T07:09:02.817Z,1.40
2019-01-19T07:11:32.353Z,1.62
2019-01-19T07:14:01.808Z,1.27
2019-01-19T07:16:31.289Z,1.95
2019-01-19T07:19:00.605Z,2.52
2019-01-19T07:21:30.010Z,1.50
2019-01-19T07:23:59.489Z,1.05
2019-01-19T07:26:28.861Z,2.20
2019-01-19T07:28:58.310Z,0.90
2019-01-19T07:31:28.258Z,1.67
2019-01-19T07:33:57.701Z,1.40
2019-01-19T07:36:27.178Z,1.12
2019-01-19T07:38:56.566Z,2.27
2019-01-19T07:41:25.939Z,1.47
2019-01-19T07:43:55.374Z,1.12
2019-01-19T07:46:25.626Z,1.55
2019-01-19T07:48:55.037Z,1.72
2019-01-19T07:51:25.721Z,1.30
2019-01-19T07:53:55.186Z,1.22
2019-01-19T07:56:24.956Z,1.32
2019-01-19T07:58:54.478Z,8.78
2019-01-19T08:01:23.910Z,10.10
2019-01-19T08:03:53.395Z,4.80
2019-01-19T08:06:22.856Z,7.65
2019-01-19T08:08:52.238Z,5.25
2019-01-19T08:11:21.703Z,3.47
2019-01-19T08:13:51.264Z,4.33
2019-01-19T08:16:20.753Z,4.97
2019-01-19T08:18:50.219Z,3.27
2019-01-19T08:21:19.617Z,4.45
2019-01-19T08:23:48.994Z,7.65
2019-01-19T08:26:18.444Z,2.52
2019-01-19T08:28:47.882Z,2.17
2019-01-19T08:31:17.283Z,2.60
2019-01-19T08:33:46.718Z,2.37
2019-01-19T08:36:16.382Z,2.75
2019-01-19T08:38:45.937Z,4.42
2019-01-19T08:41:15.313Z,7.28
2019-01-19T08:43:51.843Z,5.67
2019-01-19T08:46:21.225Z,2.52
2019-01-19T08:48:50.582Z,3.90
2019-01-19T08:51:20.137Z,5.12
2019-01-19T08:53:49.525Z,3.30
2019-01-19T08:56:18.975Z,3.72
2019-01-19T08:58:48.388Z,2.65
2019-01-19T09:01:17.796Z,1.62
2019-01-19T09:03:47.206Z,2.25
2019-01-19T09:06:16.711Z,1.92
2019-01-19T09:08:46.139Z,3.40
2019-01-19T09:11:15.613Z,2.12
2019-01-19T09:13:45.047Z,1.40
2019-01-19T09:16:16.656Z,2.42
2019-01-19T09:18:46.069Z,2.45
2019-01-19T09:21:15.534Z,2.42
2019-01-19T09:23:58.909Z,2.45
2019-01-19T09:26:28.399Z,1.72
2019-01-19T09:28:57.789Z,1.95
2019-01-19T09:31:27.258Z,2.22
2019-01-19T09:33:56.657Z,1.50
2019-01-19T09:36:26.255Z,1.10
2019-01-19T09:38:55.848Z,2.15
2019-01-19T09:41:25.932Z,2.58
2019-01-19T09:43:55.484Z,2.90
2019-01-19T09:46:24.865Z,2.52
2019-01-19T09:48:54.404Z,2.37
2019-01-19T09:51:23.821Z,3.08
2019-01-19T09:53:53.269Z,1.95
2019-01-19T09:56:22.673Z,3.05
2019-01-19T09:58:52.133Z,1.80
2019-01-19T10:01:21.549Z,1.65
2019-01-19T10:03:50.959Z,1.57
2019-01-19T10:06:20.412Z,2.37
2019-01-19T10:08:49.771Z,1.90
2019-01-19T10:11:19.263Z,2.90
2019-01-19T10:13:48.904Z,2.40
2019-01-19T10:16:18.317Z,1.77
2019-01-19T10:18:47.667Z,2.25
2019-01-19T10:21:17.424Z,1.57
2019-01-19T10:23:46.810Z,1.87
2019-01-19T10:26:16.207Z,1.60
2019-01-19T10:28:47.892Z,1.85
2019-01-19T10:31:17.290Z,2.58
2019-01-19T10:33:46.782Z,1.90
2019-01-19T10:36:16.218Z,2.65
2019-01-19T10:38:45.589Z,2.60
2019-01-19T10:41:15.857Z,2.95
2019-01-19T10:43:45.282Z,2.25
2019-01-19T10:46:14.752Z,3.33
2019-01-19T10:48:44.183Z,2.45
2019-01-19T10:51:13.747Z,2.37
2019-01-19T10:53:43.132Z,2.65
2019-01-19T10:56:12.527Z,1.47
2019-01-19T10:58:41.997Z,1.55
2019-01-19T11:01:11.352Z,3.25
2019-01-19T11:03:40.770Z,1.90
2019-01-19T11:06:10.177Z,1.90
2019-01-19T11:08:39.626Z,1.92
2019-01-19T11:11:09.110Z,2.75
2019-01-19T11:13:38.588Z,1.42
2019-01-19T11:16:08.031Z,6.20
2019-01-19T11:18:37.434Z,2.80
2019-01-19T11:21:07.013Z,10.50
2019-01-19T11:23:39.900Z,10.48
2019-01-19T11:26:07.498Z,12.63
2019-01-19T11:28:36.976Z,8.03
2019-01-19T11:31:06.349Z,7.83
2019-01-19T11:33:35.766Z,6.30
2019-01-19T11:36:05.316Z,9.58
2019-01-19T11:38:34.840Z,10.75
2019-01-19T11:41:04.328Z,7.53
2019-01-19T11:43:33.765Z,6.87
2019-01-19T11:46:03.181Z,8.55
2019-01-19T11:48:32.565Z,7.25
2019-01-19T11:51:03.232Z,6.05
2019-01-19T11:53:32.666Z,7.22
2019-01-19T11:56:02.101Z,6.28
2019-01-19T11:58:31.534Z,5.05
2019-01-19T12:01:00.927Z,14.55
2019-01-19T12:03:30.352Z,6.22
2019-01-19T12:06:00.620Z,5.75
2019-01-19T12:08:30.112Z,5.75
2019-01-19T12:10:59.684Z,6.22
2019-01-19T12:13:29.131Z,17.95
2019-01-19T12:15:58.584Z,12.90
2019-01-19T12:18:28.018Z,18.32
2019-01-19T12:20:57.477Z,17.80
2019-01-19T12:23:26.870Z,14.65
2019-01-19T12:25:56.252Z,16.77
2019-01-19T12:28:25.754Z,14.38
2019-01-19T12:30:55.228Z,10.90
2019-01-19T12:33:24.646Z,11.90
2019-01-19T12:35:54.066Z,8.63
2019-01-19T12:38:27.053Z,13.70
2019-01-19T12:40:54.623Z,10.68
2019-01-19T12:43:25.194Z,17.85
2019-01-19T12:46:08.904Z,12.10
2019-01-19T12:48:38.448Z,11.68
2019-01-19T12:51:10.066Z,25.88
2019-01-19T12:53:39.474Z,42.67
2019-01-19T12:56:09.168Z,42.40
2019-01-19T12:58:38.588Z,37.85
2019-01-19T13:01:08.063Z,40.58
2019-01-19T13:03:37.943Z,33.70
2019-01-19T13:06:31.481Z,32.48
2019-01-19T13:09:02.187Z,28.40
2019-01-19T13:11:59.678Z,33.73
2019-01-19T13:14:31.049Z,23.98
2019-01-19T13:17:59.075Z,24.43
2019-01-19T13:21:20.610Z,23.65
2019-01-19T13:24:35.143Z,41.25
2019-01-19T13:27:33.189Z,45.70
2019-01-19T13:30:17.743Z,31.35
2019-01-19T13:33:18.361Z,28.98
2019-01-19T13:36:23.080Z,30.80
2019-01-19T13:39:35.902Z,23.57
2019-01-19T13:42:33.450Z,24.50
2019-01-19T13:45:51.862Z,24.90
2019-01-19T13:48:45.174Z,29.48
2019-01-19T13:51:48.131Z,17.15
2019-01-19T13:55:09.366Z,24.05
2019-01-19T13:57:52.414Z,21.17
2019-01-19T14:01:04.638Z,20.80
2019-01-19T14:03:55.372Z,19.07
2019-01-19T14:07:04.976Z,18.25
2019-01-19T14:10:26.568Z,12.60
2019-01-19T14:13:35.844Z,14.65
2019-01-19T14:16:30.563Z,18.52
2019-01-19T14:19:36.838Z,18.82
2019-01-19T14:22:50.304Z,20.20
2019-01-19T14:26:12.503Z,18.02
2019-01-19T14:29:34.811Z,26.95
2019-01-19T14:32:44.874Z,30.45
2019-01-19T14:35:50.941Z,28.70
2019-01-19T14:39:04.613Z,26.30
2019-01-19T14:42:18.119Z,30.12
2019-01-19T14:45:37.332Z,28.75
2019-01-19T14:48:40.755Z,31.52
2019-01-19T14:51:48.252Z,29.50
2019-01-19T14:54:58.637Z,24.82
2019-01-19T14:57:52.060Z,23.70
2019-01-19T15:01:13.167Z,16.80
2019-01-19T15:04:07.331Z,15.25
2019-01-19T15:07:09.723Z,13.85
2019-01-19T15:10:19.405Z,13.25
2019-01-19T15:13:11.494Z,10.63
2019-01-19T15:16:32.774Z,13.65
2019-01-19T15:19:37.741Z,7.78
2019-01-19T15:22:48.038Z,8.58
2019-01-19T15:25:34.100Z,7.97
2019-01-19T15:28:27.939Z,9.88
2019-01-19T15:31:27.090Z,10.38
2019-01-19T15:34:33.063Z,16.37
2019-01-19T15:37:24.610Z,20.62
2019-01-19T15:40:47.510Z,19.70
2019-01-19T15:43:40.321Z,18.17
2019-01-19T15:46:56.347Z,15.60
2019-01-19T15:50:00.808Z,17.82
2019-01-19T15:52:48.799Z,17.10
2019-01-19T15:55:59.292Z,9.65
2019-01-19T15:59:00.108Z,8.90
2019-01-19T16:01:46.641Z,12.03
2019-01-19T16:05:11.948Z,8.10
2019-01-19T16:08:07.596Z,8.78
2019-01-19T16:11:15.337Z,11.65
2019-01-19T16:14:22.801Z,6.47
2019-01-19T16:17:22.451Z,13.03
2019-01-19T16:20:19.728Z,9.35
2019-01-19T16:23:23.197Z,5.85
2019-01-19T16:26:43.003Z,9.88
2019-01-19T16:29:43.570Z,14.47
2019-01-19T16:33:03.404Z,7.97
2019-01-19T16:35:55.287Z,9.13
2019-01-19T16:39:13.687Z,7.40
2019-01-19T16:42:37.208Z,8.03
2019-01-19T16:45:53.265Z,10.35
2019-01-19T16:48:39.272Z,9.00
2019-01-19T16:51:49.375Z,10.95
2019-01-19T16:54:59.677Z,6.90
2019-01-19T16:57:55.513Z,8.75
2019-01-19T17:01:17.554Z,16.73
2019-01-19T17:04:40.063Z,7.37
2019-01-19T17:07:36.281Z,9.73
2019-01-19T17:10:36.738Z,8.33
2019-01-19T17:13:55.760Z,5.95
2019-01-19T17:17:06.735Z,4.62
2019-01-19T17:19:59.134Z,3.80
2019-01-19T17:23:11.223Z,7.17
2019-01-19T17:26:21.910Z,5.37
2019-01-19T17:29:11.232Z,10.20
2019-01-19T17:31:50.315Z,14.93
2019-01-19T17:35:02.181Z,11.28
2019-01-19T17:37:39.497Z,11.18
2019-01-19T17:40:52.107Z,11.75
2019-01-19T17:43:43.425Z,15.18
2019-01-19T17:46:52.602Z,16.07
2019-01-19T17:50:03.240Z,13.38
2019-01-19T17:52:49.017Z,7.62
2019-01-19T17:55:47.222Z,8.20
2019-01-19T17:58:50.945Z,10.15
2019-01-19T18:02:16.390Z,7.62
2019-01-19T18:05:27.774Z,4.90
2019-01-19T18:08:28.888Z,5.12
2019-01-19T18:11:24.692Z,7.47
2019-01-19T18:14:40.744Z,6.33
2019-01-19T18:17:47.246Z,7.45
2019-01-19T18:21:04.993Z,5.33
2019-01-19T18:24:25.960Z,4.72
2019-01-19T18:28:02.988Z,5.78
2019-01-19T18:30:49.398Z,3.77
2019-01-19T18:33:59.728Z,2.25
2019-01-19T18:36:54.651Z,3.15
2019-01-19T18:40:02.155Z,3.00
2019-01-19T18:42:55.436Z,2.47
2019-01-19T18:46:12.031Z,2.17
2019-01-19T18:49:22.237Z,1.75
2019-01-19T18:52:21.241Z,6.05
2019-01-19T18:55:20.836Z,2.35
2019-01-19T18:58:41.478Z,2.27
2019-01-19T19:01:54.671Z,2.37
2019-01-19T19:04:53.038Z,2.20
2019-01-19T19:07:55.884Z,3.20
2019-01-19T19:10:59.599Z,1.90
2019-01-19T19:13:41.194Z,2.10
2019-01-19T19:16:49.301Z,2.87
2019-01-19T19:20:01.387Z,2.45
2019-01-19T19:23:08.490Z,2.17
2019-01-19T19:26:21.644Z,1.47
2019-01-19T19:29:44.039Z,2.08
2019-01-19T19:32:59.673Z,1.27
2019-01-19T19:36:19.025Z,2.17
2019-01-19T19:39:29.705Z,1.95
2019-01-19T19:42:39.361Z,0.90
2019-01-19T19:45:28.315Z,0.98
2019-01-19T19:48:38.352Z,3.52
2019-01-19T19:51:34.369Z,2.67
2019-01-19T19:54:03.929Z,1.45
2019-01-19T19:56:31.607Z,1.27
2019-01-19T19:59:01.088Z,1.87
2019-01-19T20:01:30.522Z,2.00
2019-01-19T20:03:59.961Z,2.33
2019-01-19T20:06:29.449Z,3.37
2019-01-19T20:08:59.086Z,1.72
2019-01-19T20:11:28.470Z,1.62
2019-01-19T20:13:57.943Z,2.20
2019-01-19T20:16:27.398Z,1.37
2019-01-19T20:18:56.810Z,1.35
2019-01-19T20:21:26.275Z,1.50
2019-01-19T20:23:55.687Z,2.05
2019-01-19T20:26:25.096Z,1.52
2019-01-19T20:28:54.588Z,1.62
2019-01-19T20:31:24.027Z,1.98
2019-01-19T20:33:53.423Z,1.17
2019-01-19T20:36:22.851Z,1.67
2019-01-19T20:38:52.288Z,0.65
2019-01-19T20:41:21.665Z,0.70
2019-01-19T20:43:51.143Z,1.85
2019-01-19T20:46:20.532Z,1.47
2019-01-19T20:48:50.093Z,1.20
2019-01-19T20:51:19.513Z,1.62
2019-01-19T20:53:48.965Z,1.57
2019-01-19T20:56:18.370Z,1.80
2019-01-19T20:58:47.755Z,3.55
2019-01-19T21:01:17.258Z,1.10
2019-01-19T21:03:46.643Z,1.37
2019-01-19T21:06:16.109Z,3.37
2019-01-19T21:08:45.546Z,0.95
2019-01-19T21:11:14.930Z,2.25
2019-01-19T21:13:44.310Z,1.50
2019-01-19T21:16:13.750Z,1.80
2019-01-19T21:18:43.130Z,1.17
2019-01-19T21:21:12.525Z,0.88
2019-01-19T21:23:41.945Z,1.87
2019-01-19T21:26:11.348Z,1.22
2019-01-19T21:28:40.761Z,2.72
2019-01-19T21:31:10.189Z,2.37
2019-01-19T21:33:39.597Z,1.40
2019-01-19T21:36:08.976Z,2.83
2019-01-19T21:38:38.446Z,1.62
2019-01-19T21:41:07.847Z,1.75
2019-01-19T21:43:37.242Z,1.30
2019-01-19T21:46:06.720Z,0.90
2019-01-19T21:48:36.133Z,1.80
2019-01-19T21:51:05.602Z,1.20
2019-01-19T21:53:35.025Z,1.07
2019-01-19T21:56:05.464Z,1.55
2019-01-19T21:58:34.850Z,0.82
2019-01-19T22:01:04.206Z,1.05
2019-01-19T22:03:33.685Z,1.00
2019-01-19T22:06:03.151Z,1.05
2019-01-19T22:08:32.580Z,1.27
2019-01-19T22:11:02.025Z,1.75
2019-01-19T22:13:31.380Z,1.12
2019-01-19T22:16:00.731Z,0.88
2019-01-19T22:18:30.174Z,1.47
2019-01-19T22:20:59.562Z,1.42
2019-01-19T22:23:28.949Z,2.02
2019-01-19T22:25:58.343Z,1.37
2019-01-19T22:28:28.456Z,1.10
2019-01-19T22:30:57.946Z,0.88
2019-01-19T22:33:27.463Z,2.42
2019-01-19T22:35:56.891Z,2.30
2019-01-19T22:38:26.280Z,1.67
2019-01-19T22:40:55.711Z,2.75
2019-01-19T22:43:31.175Z,3.77
2019-01-19T22:46:00.739Z,2.65
2019-01-19T22:48:30.183Z,2.08
2019-01-19T22:50:59.671Z,1.92
2019-01-19T22:53:29.097Z,6.45
2019-01-19T22:55:58.623Z,1.90
2019-01-19T22:58:28.421Z,2.00
2019-01-19T23:01:25.024Z,2.67
2019-01-19T23:03:54.544Z,3.65
2019-01-19T23:06:24.330Z,4.30
2019-01-19T23:08:53.959Z,3.33
2019-01-19T23:11:23.417Z,2.10
2019-01-19T23:13:52.793Z,1.37
2019-01-19T23:16:22.198Z,2.65
2019-01-19T23:18:51.609Z,5.40
2019-01-19T23:21:21.029Z,4.17
2019-01-19T23:23:50.445Z,2.05
2019-01-19T23:26:20.056Z,2.25
2019-01-19T23:28:49.470Z,2.70
2019-01-19T23:31:21.627Z,1.52
2019-01-19T23:33:51.084Z,2.58
2019-01-19T23:36:20.470Z,8.90
2019-01-19T23:38:49.895Z,1.98
2019-01-19T23:41:19.307Z,3.37
2019-01-19T23:43:48.704Z,1.02
2019-01-19T23:46:18.251Z,2.62
2019-01-19T23:48:47.935Z,1.90
2019-01-19T23:51:17.390Z,0.10
2019-01-19T23:53:47.075Z,1.17
2019-01-19T23:56:16.494Z,1.05
2019-01-19T23:58:45.895Z,1.82
